sensor_id;sensor_type;location;lat;lon;timestamp;temperature;humidity
13970;DHT22;7057;49.984;8.404;2022-12-07T00:01:22;6.10;99.90
13970;DHT22;7057;49.984;8.404;2022-12-07T00:03:52;6.10;99.90
13970;DHT22;7057;49.984;8.404;2022-12-07T00:06:20;6.10;99.90
13970;DHT22;7057;49.984;8.404;2022-12-07T00:08:48;6.20;99.90
13970;DHT22;7057;49.984;8.404;2022-12-07T00:11:18;6.30;99.90
13970;DHT22;7057;49.984;8.404;2022-12-07T00:13:45;6.30;99.90
13970;DHT22;7057;49.984;8.404;2022-12-07T00:16:15;6.20;99.90
13970;DHT22;7057;49.984;8.404;2022-12-07T00:18:43;6.10;99.90
13970;DHT22;7057;49.984;8.404;2022-12-07T00:21:12;6.00;99.90
13970;DHT22;7057;49.984;8.404;2022-12-07T00:23:41;5.90;99.90
13970;DHT22;7057;49.984;8.404;2022-12-07T00:26:10;6.10;99.90
13970;DHT22;7057;49.984;8.404;2022-12-07T00:28:39;6.00;99.90
13970;DHT22;7057;49.984;8.404;2022-12-07T00:31:08;6.10;99.90
13970;DHT22;7057;49.984;8.404;2022-12-07T00:33:36;6.10;99.90
13970;DHT22;7057;49.984;8.404;2022-12-07T00:36:06;6.20;99.90
13970;DHT22;7057;49.984;8.404;2022-12-07T00:38:35;6.10;99.90
13970;DHT22;7057;49.984;8.404;2022-12-07T00:41:05;6.00;99.90
13970;DHT22;7057;49.984;8.404;2022-12-07T00:43:32;6.00;99.90
13970;DHT22;7057;49.984;8.404;2022-12-07T00:46:01;5.90;99.90
13970;DHT22;7057;49.984;8.404;2022-12-07T00:48:28;5.40;99.90
13970;DHT22;7057;49.984;8.404;2022-12-07T00:50:56;5.50;99.90
13970;DHT22;7057;49.984;8.404;2022-12-07T00:53:23;5.40;99.90
13970;DHT22;7057;49.984;8.404;2022-12-07T00:55:51;5.10;99.90
13970;DHT22;7057;49.984;8.404;2022-12-07T00:58:19;4.90;99.90
13970;DHT22;7057;49.984;8.404;2022-12-07T01:00:46;5.20;99.90
13970;DHT22;7057;49.984;8.404;2022-12-07T01:03:16;5.20;99.90
13970;DHT22;7057;49.984;8.404;2022-12-07T01:05:49;5.20;99.90
13970;DHT22;7057;49.984;8.404;2022-12-07T01:08:17;5.20;99.90
13970;DHT22;7057;49.984;8.404;2022-12-07T01:10:44;5.20;99.90
13970;DHT22;7057;49.984;8.404;2022-12-07T01:13:12;5.10;99.90
13970;DHT22;7057;49.984;8.404;2022-12-07T01:15:39;4.80;99.90
13970;DHT22;7057;49.984;8.404;2022-12-07T01:18:07;4.80;99.90
13970;DHT22;7057;49.984;8.404;2022-12-07T01:20:36;4.60;99.90
13970;DHT22;7057;49.984;8.404;2022-12-07T01:23:03;4.80;99.90
13970;DHT22;7057;49.984;8.404;2022-12-07T01:25:31;4.60;99.90
13970;DHT22;7057;49.984;8.404;2022-12-07T01:27:58;4.70;99.90
13970;DHT22;7057;49.984;8.404;2022-12-07T01:30:25;4.70;99.90
13970;DHT22;7057;49.984;8.404;2022-12-07T01:32:53;4.60;99.90
13970;DHT22;7057;49.984;8.404;2022-12-07T01:35:20;4.70;99.90
13970;DHT22;7057;49.984;8.404;2022-12-07T01:37:48;4.90;99.90
13970;DHT22;7057;49.984;8.404;2022-12-07T01:40:15;4.90;99.90
13970;DHT22;7057;49.984;8.404;2022-12-07T01:42:43;4.80;99.90
13970;DHT22;7057;49.984;8.404;2022-12-07T01:45:38;4.80;99.90
13970;DHT22;7057;49.984;8.404;2022-12-07T01:48:05;4.70;99.90
13970;DHT22;7057;49.984;8.404;2022-12-07T01:50:35;4.90;99.90
13970;DHT22;7057;49.984;8.404;2022-12-07T01:53:06;4.70;99.90
13970;DHT22;7057;49.984;8.404;2022-12-07T01:55:39;4.80;99.90
13970;DHT22;7057;49.984;8.404;2022-12-07T01:58:07;5.00;99.90
13970;DHT22;7057;49.984;8.404;2022-12-07T02:00:34;5.20;99.90
13970;DHT22;7057;49.984;8.404;2022-12-07T02:03:05;5.00;99.90
13970;DHT22;7057;49.984;8.404;2022-12-07T02:05:34;4.90;99.90
13970;DHT22;7057;49.984;8.404;2022-12-07T02:08:05;4.70;99.90
13970;DHT22;7057;49.984;8.404;2022-12-07T02:10:33;4.70;99.90
13970;DHT22;7057;49.984;8.404;2022-12-07T02:13:02;4.80;99.90
13970;DHT22;7057;49.984;8.404;2022-12-07T02:15:43;5.10;99.90
13970;DHT22;7057;49.984;8.404;2022-12-07T02:18:17;5.50;99.90
13970;DHT22;7057;49.984;8.404;2022-12-07T02:20:49;5.50;99.90
13970;DHT22;7057;49.984;8.404;2022-12-07T02:26:57;5.70;99.90
13970;DHT22;7057;49.984;8.404;2022-12-07T02:29:31;5.20;99.90
13970;DHT22;7057;49.984;8.404;2022-12-07T02:32:06;5.20;99.90
13970;DHT22;7057;49.984;8.404;2022-12-07T02:34:45;5.40;99.90
13970;DHT22;7057;49.984;8.404;2022-12-07T02:37:19;5.50;99.90
13970;DHT22;7057;49.984;8.404;2022-12-07T02:39:53;5.50;99.90
13970;DHT22;7057;49.984;8.404;2022-12-07T02:42:25;5.80;99.90
13970;DHT22;7057;49.984;8.404;2022-12-07T02:44:56;5.50;99.90
13970;DHT22;7057;49.984;8.404;2022-12-07T02:47:25;5.40;99.90
13970;DHT22;7057;49.984;8.404;2022-12-07T02:49:53;5.20;99.90
13970;DHT22;7057;49.984;8.404;2022-12-07T02:52:20;5.30;99.90
13970;DHT22;7057;49.984;8.404;2022-12-07T02:54:47;5.10;99.90
13970;DHT22;7057;49.984;8.404;2022-12-07T02:57:28;4.40;99.90
13970;DHT22;7057;49.984;8.404;2022-12-07T03:00:04;4.90;99.90
13970;DHT22;7057;49.984;8.404;2022-12-07T03:02:46;4.80;99.90
13970;DHT22;7057;49.984;8.404;2022-12-07T03:08:13;4.80;99.90
13970;DHT22;7057;49.984;8.404;2022-12-07T03:10:50;5.10;99.90
13970;DHT22;7057;49.984;8.404;2022-12-07T03:13:23;5.00;99.90
13970;DHT22;7057;49.984;8.404;2022-12-07T03:15:56;4.90;99.90
13970;DHT22;7057;49.984;8.404;2022-12-07T03:18:28;4.90;99.90
13970;DHT22;7057;49.984;8.404;2022-12-07T03:21:00;4.90;99.90
13970;DHT22;7057;49.984;8.404;2022-12-07T03:23:29;5.10;99.90
13970;DHT22;7057;49.984;8.404;2022-12-07T03:26:00;5.20;99.90
13970;DHT22;7057;49.984;8.404;2022-12-07T03:28:32;5.50;99.90
13970;DHT22;7057;49.984;8.404;2022-12-07T03:31:04;5.40;99.90
13970;DHT22;7057;49.984;8.404;2022-12-07T03:33:41;5.10;99.90
13970;DHT22;7057;49.984;8.404;2022-12-07T03:36:14;4.80;99.90
13970;DHT22;7057;49.984;8.404;2022-12-07T03:38:46;5.00;99.90
13970;DHT22;7057;49.984;8.404;2022-12-07T03:41:19;5.00;99.90
13970;DHT22;7057;49.984;8.404;2022-12-07T03:43:49;5.00;99.90
13970;DHT22;7057;49.984;8.404;2022-12-07T03:46:22;5.10;99.90
13970;DHT22;7057;49.984;8.404;2022-12-07T03:48:59;5.10;99.90
13970;DHT22;7057;49.984;8.404;2022-12-07T03:51:32;5.40;99.90
13970;DHT22;7057;49.984;8.404;2022-12-07T03:54:09;5.20;99.90
13970;DHT22;7057;49.984;8.404;2022-12-07T03:56:37;5.10;99.90
13970;DHT22;7057;49.984;8.404;2022-12-07T03:59:05;4.90;99.90
13970;DHT22;7057;49.984;8.404;2022-12-07T04:01:35;5.00;99.90
13970;DHT22;7057;49.984;8.404;2022-12-07T04:04:02;5.20;99.90
13970;DHT22;7057;49.984;8.404;2022-12-07T04:06:29;5.00;99.90
13970;DHT22;7057;49.984;8.404;2022-12-07T04:08:56;5.20;99.90
13970;DHT22;7057;49.984;8.404;2022-12-07T04:11:23;4.90;99.90
13970;DHT22;7057;49.984;8.404;2022-12-07T04:13:51;5.00;99.90
13970;DHT22;7057;49.984;8.404;2022-12-07T04:16:37;5.10;99.90
13970;DHT22;7057;49.984;8.404;2022-12-07T04:19:04;5.20;99.90
13970;DHT22;7057;49.984;8.404;2022-12-07T04:21:31;5.20;99.90
13970;DHT22;7057;49.984;8.404;2022-12-07T04:23:58;5.30;99.90
13970;DHT22;7057;49.984;8.404;2022-12-07T04:26:25;5.50;99.90
13970;DHT22;7057;49.984;8.404;2022-12-07T04:28:53;5.70;99.90
13970;DHT22;7057;49.984;8.404;2022-12-07T04:31:20;5.60;99.90
13970;DHT22;7057;49.984;8.404;2022-12-07T04:33:48;5.40;99.90
13970;DHT22;7057;49.984;8.404;2022-12-07T04:36:16;5.20;99.90
13970;DHT22;7057;49.984;8.404;2022-12-07T04:38:43;5.20;99.90
13970;DHT22;7057;49.984;8.404;2022-12-07T04:41:10;5.20;99.90
13970;DHT22;7057;49.984;8.404;2022-12-07T04:43:37;5.40;99.90
13970;DHT22;7057;49.984;8.404;2022-12-07T04:46:05;5.80;99.90
13970;DHT22;7057;49.984;8.404;2022-12-07T04:48:32;5.50;99.90
13970;DHT22;7057;49.984;8.404;2022-12-07T04:51:02;5.50;99.90
13970;DHT22;7057;49.984;8.404;2022-12-07T04:53:29;5.60;99.90
13970;DHT22;7057;49.984;8.404;2022-12-07T04:55:56;5.70;99.90
13970;DHT22;7057;49.984;8.404;2022-12-07T04:58:24;5.70;99.90
13970;DHT22;7057;49.984;8.404;2022-12-07T05:00:54;5.70;99.90
13970;DHT22;7057;49.984;8.404;2022-12-07T05:03:21;5.50;99.90
13970;DHT22;7057;49.984;8.404;2022-12-07T05:05:48;5.70;99.90
13970;DHT22;7057;49.984;8.404;2022-12-07T05:08:17;5.80;99.90
13970;DHT22;7057;49.984;8.404;2022-12-07T05:10:44;5.80;99.90
13970;DHT22;7057;49.984;8.404;2022-12-07T05:13:11;5.80;99.90
13970;DHT22;7057;49.984;8.404;2022-12-07T05:15:38;5.60;99.90
13970;DHT22;7057;49.984;8.404;2022-12-07T05:18:06;5.70;99.90
13970;DHT22;7057;49.984;8.404;2022-12-07T05:20:33;5.70;99.90
13970;DHT22;7057;49.984;8.404;2022-12-07T05:23:00;5.50;99.90
13970;DHT22;7057;49.984;8.404;2022-12-07T05:25:29;5.30;99.90
13970;DHT22;7057;49.984;8.404;2022-12-07T05:27:56;5.30;99.90
13970;DHT22;7057;49.984;8.404;2022-12-07T05:30:24;5.40;99.90
13970;DHT22;7057;49.984;8.404;2022-12-07T05:32:51;5.50;99.90
13970;DHT22;7057;49.984;8.404;2022-12-07T05:35:19;5.50;99.90
13970;DHT22;7057;49.984;8.404;2022-12-07T05:37:46;5.30;99.90
13970;DHT22;7057;49.984;8.404;2022-12-07T05:40:14;5.20;99.90
13970;DHT22;7057;49.984;8.404;2022-12-07T05:42:43;5.30;99.90
13970;DHT22;7057;49.984;8.404;2022-12-07T05:45:11;5.30;99.90
13970;DHT22;7057;49.984;8.404;2022-12-07T05:47:38;5.70;99.90
13970;DHT22;7057;49.984;8.404;2022-12-07T05:50:09;5.70;99.90
13970;DHT22;7057;49.984;8.404;2022-12-07T05:52:36;5.50;99.90
13970;DHT22;7057;49.984;8.404;2022-12-07T05:55:04;5.50;99.90
13970;DHT22;7057;49.984;8.404;2022-12-07T05:57:32;5.50;99.90
13970;DHT22;7057;49.984;8.404;2022-12-07T06:00:02;5.30;99.90
13970;DHT22;7057;49.984;8.404;2022-12-07T06:02:29;5.30;99.90
13970;DHT22;7057;49.984;8.404;2022-12-07T06:04:56;5.60;99.90
13970;DHT22;7057;49.984;8.404;2022-12-07T06:07:23;5.80;99.90
13970;DHT22;7057;49.984;8.404;2022-12-07T06:09:50;5.80;99.90
13970;DHT22;7057;49.984;8.404;2022-12-07T06:12:18;6.00;99.90
13970;DHT22;7057;49.984;8.404;2022-12-07T06:15:04;6.10;99.90
13970;DHT22;7057;49.984;8.404;2022-12-07T06:17:31;6.00;99.90
13970;DHT22;7057;49.984;8.404;2022-12-07T06:19:58;5.90;99.90
13970;DHT22;7057;49.984;8.404;2022-12-07T06:22:26;5.60;99.90
13970;DHT22;7057;49.984;8.404;2022-12-07T06:24:53;5.80;99.90
13970;DHT22;7057;49.984;8.404;2022-12-07T06:27:20;5.90;99.90
13970;DHT22;7057;49.984;8.404;2022-12-07T06:29:47;5.80;99.90
13970;DHT22;7057;49.984;8.404;2022-12-07T06:32:16;6.00;99.90
13970;DHT22;7057;49.984;8.404;2022-12-07T06:34:43;5.80;99.90
13970;DHT22;7057;49.984;8.404;2022-12-07T06:37:10;5.90;99.90
13970;DHT22;7057;49.984;8.404;2022-12-07T06:39:37;5.90;99.90
13970;DHT22;7057;49.984;8.404;2022-12-07T06:42:05;5.80;99.90
13970;DHT22;7057;49.984;8.404;2022-12-07T06:44:32;5.90;99.90
13970;DHT22;7057;49.984;8.404;2022-12-07T06:46:59;6.00;99.90
13970;DHT22;7057;49.984;8.404;2022-12-07T06:49:28;4.50;99.90
13970;DHT22;7057;49.984;8.404;2022-12-07T06:51:55;5.80;99.90
13970;DHT22;7057;49.984;8.404;2022-12-07T06:54:22;6.00;99.90
13970;DHT22;7057;49.984;8.404;2022-12-07T06:56:49;6.30;99.90
13970;DHT22;7057;49.984;8.404;2022-12-07T06:59:17;6.10;99.90
13970;DHT22;7057;49.984;8.404;2022-12-07T07:01:44;5.80;99.90
13970;DHT22;7057;49.984;8.404;2022-12-07T07:04:11;5.60;99.90
13970;DHT22;7057;49.984;8.404;2022-12-07T07:06:39;5.40;99.90
13970;DHT22;7057;49.984;8.404;2022-12-07T07:09:07;5.00;99.90
13970;DHT22;7057;49.984;8.404;2022-12-07T07:11:35;4.90;99.90
13970;DHT22;7057;49.984;8.404;2022-12-07T07:14:02;4.80;99.90
13970;DHT22;7057;49.984;8.404;2022-12-07T07:16:30;4.80;99.90
13970;DHT22;7057;49.984;8.404;2022-12-07T07:18:57;4.80;99.90
13970;DHT22;7057;49.984;8.404;2022-12-07T07:21:24;4.80;99.90
13970;DHT22;7057;49.984;8.404;2022-12-07T07:23:53;4.70;99.90
13970;DHT22;7057;49.984;8.404;2022-12-07T07:26:20;4.70;99.90
13970;DHT22;7057;49.984;8.404;2022-12-07T07:28:47;4.70;99.90
13970;DHT22;7057;49.984;8.404;2022-12-07T07:31:15;4.80;99.90
13970;DHT22;7057;49.984;8.404;2022-12-07T07:33:42;4.80;99.90
13970;DHT22;7057;49.984;8.404;2022-12-07T07:36:09;4.80;99.90
13970;DHT22;7057;49.984;8.404;2022-12-07T07:38:36;4.80;99.90
13970;DHT22;7057;49.984;8.404;2022-12-07T07:41:05;4.80;99.90
13970;DHT22;7057;49.984;8.404;2022-12-07T07:43:33;4.80;99.90
13970;DHT22;7057;49.984;8.404;2022-12-07T07:46:00;4.80;99.90
13970;DHT22;7057;49.984;8.404;2022-12-07T07:48:27;4.80;99.90
13970;DHT22;7057;49.984;8.404;2022-12-07T07:50:54;4.80;99.90
13970;DHT22;7057;49.984;8.404;2022-12-07T07:53:21;4.90;99.90
13970;DHT22;7057;49.984;8.404;2022-12-07T07:55:52;4.80;99.90
13970;DHT22;7057;49.984;8.404;2022-12-07T07:58:21;4.80;99.90
13970;DHT22;7057;49.984;8.404;2022-12-07T08:00:48;4.80;99.90
13970;DHT22;7057;49.984;8.404;2022-12-07T08:03:15;4.80;99.90
13970;DHT22;7057;49.984;8.404;2022-12-07T08:05:43;4.90;99.90
13970;DHT22;7057;49.984;8.404;2022-12-07T08:08:10;4.90;99.90
13970;DHT22;7057;49.984;8.404;2022-12-07T08:10:37;4.90;99.90
13970;DHT22;7057;49.984;8.404;2022-12-07T08:13:04;4.90;99.90
13970;DHT22;7057;49.984;8.404;2022-12-07T08:15:42;4.90;99.90
13970;DHT22;7057;49.984;8.404;2022-12-07T08:18:09;5.00;99.90
13970;DHT22;7057;49.984;8.404;2022-12-07T08:20:37;5.00;99.90
13970;DHT22;7057;49.984;8.404;2022-12-07T08:23:05;5.00;99.90
13970;DHT22;7057;49.984;8.404;2022-12-07T08:25:33;4.90;99.90
13970;DHT22;7057;49.984;8.404;2022-12-07T08:28:00;5.10;99.90
13970;DHT22;7057;49.984;8.404;2022-12-07T08:30:28;5.00;99.90
13970;DHT22;7057;49.984;8.404;2022-12-07T08:32:57;5.00;99.90
13970;DHT22;7057;49.984;8.404;2022-12-07T08:35:24;5.10;99.90
13970;DHT22;7057;49.984;8.404;2022-12-07T08:37:52;5.10;99.90
13970;DHT22;7057;49.984;8.404;2022-12-07T08:40:19;5.10;99.90
13970;DHT22;7057;49.984;8.404;2022-12-07T08:42:49;5.10;99.90
13970;DHT22;7057;49.984;8.404;2022-12-07T08:45:17;5.00;99.90
13970;DHT22;7057;49.984;8.404;2022-12-07T08:47:48;5.00;99.90
13970;DHT22;7057;49.984;8.404;2022-12-07T08:50:19;5.00;99.90
13970;DHT22;7057;49.984;8.404;2022-12-07T08:52:49;5.00;99.90
13970;DHT22;7057;49.984;8.404;2022-12-07T08:55:18;5.20;99.90
13970;DHT22;7057;49.984;8.404;2022-12-07T08:57:45;5.30;99.90
13970;DHT22;7057;49.984;8.404;2022-12-07T09:00:14;5.20;99.90
13970;DHT22;7057;49.984;8.404;2022-12-07T09:02:43;5.10;99.90
13970;DHT22;7057;49.984;8.404;2022-12-07T09:05:10;5.10;99.90
13970;DHT22;7057;49.984;8.404;2022-12-07T09:07:39;5.00;99.90
13970;DHT22;7057;49.984;8.404;2022-12-07T09:10:07;5.20;99.90
13970;DHT22;7057;49.984;8.404;2022-12-07T09:12:34;5.10;99.90
13970;DHT22;7057;49.984;8.404;2022-12-07T09:15:01;5.10;99.90
13970;DHT22;7057;49.984;8.404;2022-12-07T09:17:31;5.00;99.90
13970;DHT22;7057;49.984;8.404;2022-12-07T09:19:59;5.20;99.90
13970;DHT22;7057;49.984;8.404;2022-12-07T09:22:28;5.10;99.90
13970;DHT22;7057;49.984;8.404;2022-12-07T09:24:57;5.00;99.90
13970;DHT22;7057;49.984;8.404;2022-12-07T09:27:25;5.10;99.90
13970;DHT22;7057;49.984;8.404;2022-12-07T09:29:53;4.80;99.90
13970;DHT22;7057;49.984;8.404;2022-12-07T09:32:20;4.90;99.90
13970;DHT22;7057;49.984;8.404;2022-12-07T09:34:47;4.90;99.90
13970;DHT22;7057;49.984;8.404;2022-12-07T09:37:14;4.90;99.90
13970;DHT22;7057;49.984;8.404;2022-12-07T09:39:42;4.90;99.90
13970;DHT22;7057;49.984;8.404;2022-12-07T09:42:24;4.80;99.90
13970;DHT22;7057;49.984;8.404;2022-12-07T09:44:53;4.80;99.90
13970;DHT22;7057;49.984;8.404;2022-12-07T09:47:20;4.80;99.90
13970;DHT22;7057;49.984;8.404;2022-12-07T09:49:47;4.80;99.90
13970;DHT22;7057;49.984;8.404;2022-12-07T09:52:19;4.80;99.90
13970;DHT22;7057;49.984;8.404;2022-12-07T09:54:49;5.00;99.90
13970;DHT22;7057;49.984;8.404;2022-12-07T09:57:21;5.10;99.90
13970;DHT22;7057;49.984;8.404;2022-12-07T09:59:51;5.20;99.90
13970;DHT22;7057;49.984;8.404;2022-12-07T10:02:25;5.30;99.90
13970;DHT22;7057;49.984;8.404;2022-12-07T10:04:56;5.50;99.90
13970;DHT22;7057;49.984;8.404;2022-12-07T10:07:24;5.60;99.90
13970;DHT22;7057;49.984;8.404;2022-12-07T10:09:52;5.60;99.90
13970;DHT22;7057;49.984;8.404;2022-12-07T10:12:20;5.60;99.90
13970;DHT22;7057;49.984;8.404;2022-12-07T10:14:55;5.70;99.90
13970;DHT22;7057;49.984;8.404;2022-12-07T10:17:33;5.80;99.90
13970;DHT22;7057;49.984;8.404;2022-12-07T10:20:20;5.80;99.90
13970;DHT22;7057;49.984;8.404;2022-12-07T10:22:56;5.80;99.90
13970;DHT22;7057;49.984;8.404;2022-12-07T10:25:26;5.90;99.90
13970;DHT22;7057;49.984;8.404;2022-12-07T10:28:10;6.00;99.90
13970;DHT22;7057;49.984;8.404;2022-12-07T10:30:52;6.10;99.90
13970;DHT22;7057;49.984;8.404;2022-12-07T10:33:34;6.30;99.90
13970;DHT22;7057;49.984;8.404;2022-12-07T10:36:16;6.50;99.90
13970;DHT22;7057;49.984;8.404;2022-12-07T10:38:46;6.70;99.90
13970;DHT22;7057;49.984;8.404;2022-12-07T10:41:15;6.80;99.90
13970;DHT22;7057;49.984;8.404;2022-12-07T10:43:54;6.90;99.90
13970;DHT22;7057;49.984;8.404;2022-12-07T10:46:47;6.80;99.90
13970;DHT22;7057;49.984;8.404;2022-12-07T10:49:40;6.90;99.90
13970;DHT22;7057;49.984;8.404;2022-12-07T10:52:18;7.00;99.90
13970;DHT22;7057;49.984;8.404;2022-12-07T10:54:54;7.20;99.90
13970;DHT22;7057;49.984;8.404;2022-12-07T10:57:33;7.10;99.90
13970;DHT22;7057;49.984;8.404;2022-12-07T11:00:09;7.00;99.90
13970;DHT22;7057;49.984;8.404;2022-12-07T11:06:09;7.10;99.90
13970;DHT22;7057;49.984;8.404;2022-12-07T11:08:47;7.20;99.90
13970;DHT22;7057;49.984;8.404;2022-12-07T11:11:23;7.40;99.90
13970;DHT22;7057;49.984;8.404;2022-12-07T11:13:59;7.50;99.90
13970;DHT22;7057;49.984;8.404;2022-12-07T11:16:48;7.60;99.90
13970;DHT22;7057;49.984;8.404;2022-12-07T11:19:30;7.40;99.90
13970;DHT22;7057;49.984;8.404;2022-12-07T11:22:05;7.20;99.90
13970;DHT22;7057;49.984;8.404;2022-12-07T11:24:40;7.20;99.90
13970;DHT22;7057;49.984;8.404;2022-12-07T11:27:21;7.10;99.90
13970;DHT22;7057;49.984;8.404;2022-12-07T11:30:06;7.10;99.90
13970;DHT22;7057;49.984;8.404;2022-12-07T11:32:49;7.10;99.90
13970;DHT22;7057;49.984;8.404;2022-12-07T11:35:24;7.20;99.90
13970;DHT22;7057;49.984;8.404;2022-12-07T11:37:58;7.10;99.90
13970;DHT22;7057;49.984;8.404;2022-12-07T11:40:30;7.10;99.90
13970;DHT22;7057;49.984;8.404;2022-12-07T11:43:05;7.20;99.90
13970;DHT22;7057;49.984;8.404;2022-12-07T11:45:36;7.20;99.90
13970;DHT22;7057;49.984;8.404;2022-12-07T11:48:11;7.20;99.90
13970;DHT22;7057;49.984;8.404;2022-12-07T11:50:43;7.30;99.90
13970;DHT22;7057;49.984;8.404;2022-12-07T11:53:17;7.20;99.90
13970;DHT22;7057;49.984;8.404;2022-12-07T11:55:49;7.20;99.90
13970;DHT22;7057;49.984;8.404;2022-12-07T11:58:37;7.30;99.90
13970;DHT22;7057;49.984;8.404;2022-12-07T12:01:15;7.30;99.90
13970;DHT22;7057;49.984;8.404;2022-12-07T12:03:50;7.40;99.90
13970;DHT22;7057;49.984;8.404;2022-12-07T12:06:19;7.50;99.90
13970;DHT22;7057;49.984;8.404;2022-12-07T12:08:51;7.40;99.90
13970;DHT22;7057;49.984;8.404;2022-12-07T12:11:32;7.20;99.90
13970;DHT22;7057;49.984;8.404;2022-12-07T12:14:34;7.10;99.90
13970;DHT22;7057;49.984;8.404;2022-12-07T12:17:25;7.10;99.90
13970;DHT22;7057;49.984;8.404;2022-12-07T12:20:05;7.10;99.90
13970;DHT22;7057;49.984;8.404;2022-12-07T12:22:37;7.00;99.90
13970;DHT22;7057;49.984;8.404;2022-12-07T12:25:07;7.00;99.90
13970;DHT22;7057;49.984;8.404;2022-12-07T12:27:40;7.00;99.90
13970;DHT22;7057;49.984;8.404;2022-12-07T12:30:26;7.00;99.90
13970;DHT22;7057;49.984;8.404;2022-12-07T12:33:02;7.00;99.90
13970;DHT22;7057;49.984;8.404;2022-12-07T12:35:33;7.00;99.90
13970;DHT22;7057;49.984;8.404;2022-12-07T12:38:31;7.10;99.90
13970;DHT22;7057;49.984;8.404;2022-12-07T12:41:00;7.10;99.90
13970;DHT22;7057;49.984;8.404;2022-12-07T12:43:51;7.30;99.90
13970;DHT22;7057;49.984;8.404;2022-12-07T12:46:49;7.40;99.90
13970;DHT22;7057;49.984;8.404;2022-12-07T12:49:42;7.40;99.90
13970;DHT22;7057;49.984;8.404;2022-12-07T12:55:26;7.40;99.90
13970;DHT22;7057;49.984;8.404;2022-12-07T12:58:34;7.50;99.90
13970;DHT22;7057;49.984;8.404;2022-12-07T13:04:22;7.40;99.90
13970;DHT22;7057;49.984;8.404;2022-12-07T13:06:50;7.60;99.90
13970;DHT22;7057;49.984;8.404;2022-12-07T13:09:23;7.70;99.90
13970;DHT22;7057;49.984;8.404;2022-12-07T13:11:59;7.80;99.90
13970;DHT22;7057;49.984;8.404;2022-12-07T13:14:55;7.70;99.90
13970;DHT22;7057;49.984;8.404;2022-12-07T13:17:57;7.70;99.90
13970;DHT22;7057;49.984;8.404;2022-12-07T13:20:47;7.50;99.90
13970;DHT22;7057;49.984;8.404;2022-12-07T13:23:19;7.50;99.90
13970;DHT22;7057;49.984;8.404;2022-12-07T13:26:14;7.90;99.90
13970;DHT22;7057;49.984;8.404;2022-12-07T13:28:44;7.60;99.90
13970;DHT22;7057;49.984;8.404;2022-12-07T13:31:18;7.70;99.90
13970;DHT22;7057;49.984;8.404;2022-12-07T13:33:46;7.80;99.90
13970;DHT22;7057;49.984;8.404;2022-12-07T13:36:22;7.90;99.90
13970;DHT22;7057;49.984;8.404;2022-12-07T13:38:53;8.00;99.90
13970;DHT22;7057;49.984;8.404;2022-12-07T13:41:21;8.00;99.90
13970;DHT22;7057;49.984;8.404;2022-12-07T13:44:00;7.80;99.90
13970;DHT22;7057;49.984;8.404;2022-12-07T13:46:35;7.70;99.90
13970;DHT22;7057;49.984;8.404;2022-12-07T13:49:17;7.40;99.90
13970;DHT22;7057;49.984;8.404;2022-12-07T13:51:45;7.50;99.90
13970;DHT22;7057;49.984;8.404;2022-12-07T13:54:13;7.40;99.90
13970;DHT22;7057;49.984;8.404;2022-12-07T13:56:40;7.30;99.90
13970;DHT22;7057;49.984;8.404;2022-12-07T13:59:13;7.20;99.90
13970;DHT22;7057;49.984;8.404;2022-12-07T14:01:41;7.20;99.90
13970;DHT22;7057;49.984;8.404;2022-12-07T14:04:42;7.20;99.90
13970;DHT22;7057;49.984;8.404;2022-12-07T14:07:21;7.10;99.90
13970;DHT22;7057;49.984;8.404;2022-12-07T14:09:56;7.10;99.90
13970;DHT22;7057;49.984;8.404;2022-12-07T14:12:24;7.20;99.90
13970;DHT22;7057;49.984;8.404;2022-12-07T14:14:54;7.20;99.90
13970;DHT22;7057;49.984;8.404;2022-12-07T14:17:24;7.10;99.90
13970;DHT22;7057;49.984;8.404;2022-12-07T14:19:52;7.10;99.90
13970;DHT22;7057;49.984;8.404;2022-12-07T14:22:27;7.10;99.90
13970;DHT22;7057;49.984;8.404;2022-12-07T14:25:20;7.20;99.90
13970;DHT22;7057;49.984;8.404;2022-12-07T14:27:56;7.20;99.90
13970;DHT22;7057;49.984;8.404;2022-12-07T14:30:26;7.20;99.90
13970;DHT22;7057;49.984;8.404;2022-12-07T14:32:57;7.00;99.90
13970;DHT22;7057;49.984;8.404;2022-12-07T14:35:26;6.90;99.90
13970;DHT22;7057;49.984;8.404;2022-12-07T14:37:53;6.80;99.90
13970;DHT22;7057;49.984;8.404;2022-12-07T14:40:21;6.70;99.90
13970;DHT22;7057;49.984;8.404;2022-12-07T14:42:51;6.60;99.90
13970;DHT22;7057;49.984;8.404;2022-12-07T14:45:21;6.40;99.90
13970;DHT22;7057;49.984;8.404;2022-12-07T14:47:50;6.30;99.90
13970;DHT22;7057;49.984;8.404;2022-12-07T14:50:19;6.30;99.90
13970;DHT22;7057;49.984;8.404;2022-12-07T14:52:49;6.40;99.90
13970;DHT22;7057;49.984;8.404;2022-12-07T14:55:22;6.30;99.90
13970;DHT22;7057;49.984;8.404;2022-12-07T14:57:50;6.30;99.90
13970;DHT22;7057;49.984;8.404;2022-12-07T15:00:18;6.30;99.90
13970;DHT22;7057;49.984;8.404;2022-12-07T15:02:47;6.30;99.90
13970;DHT22;7057;49.984;8.404;2022-12-07T15:05:16;6.30;99.90
13970;DHT22;7057;49.984;8.404;2022-12-07T15:07:43;6.40;99.90
13970;DHT22;7057;49.984;8.404;2022-12-07T15:10:16;6.50;99.90
13970;DHT22;7057;49.984;8.404;2022-12-07T15:12:43;6.50;99.90
13970;DHT22;7057;49.984;8.404;2022-12-07T15:15:12;6.50;99.90
13970;DHT22;7057;49.984;8.404;2022-12-07T15:17:39;6.30;99.90
13970;DHT22;7057;49.984;8.404;2022-12-07T15:20:11;6.30;99.90
13970;DHT22;7057;49.984;8.404;2022-12-07T15:22:39;6.30;99.90
13970;DHT22;7057;49.984;8.404;2022-12-07T15:25:08;6.20;99.90
13970;DHT22;7057;49.984;8.404;2022-12-07T15:27:39;6.30;99.90
13970;DHT22;7057;49.984;8.404;2022-12-07T15:30:07;6.20;99.90
13970;DHT22;7057;49.984;8.404;2022-12-07T15:32:34;5.60;99.90
13970;DHT22;7057;49.984;8.404;2022-12-07T15:35:01;6.30;99.90
13970;DHT22;7057;49.984;8.404;2022-12-07T15:37:29;6.30;99.90
13970;DHT22;7057;49.984;8.404;2022-12-07T15:39:58;6.30;99.90
13970;DHT22;7057;49.984;8.404;2022-12-07T15:42:25;6.20;99.90
13970;DHT22;7057;49.984;8.404;2022-12-07T15:44:52;6.10;99.90
13970;DHT22;7057;49.984;8.404;2022-12-07T15:47:31;6.00;99.90
13970;DHT22;7057;49.984;8.404;2022-12-07T15:49:59;5.90;99.90
13970;DHT22;7057;49.984;8.404;2022-12-07T15:52:26;5.80;99.90
13970;DHT22;7057;49.984;8.404;2022-12-07T15:54:53;5.50;99.90
13970;DHT22;7057;49.984;8.404;2022-12-07T15:57:22;5.50;99.90
13970;DHT22;7057;49.984;8.404;2022-12-07T15:59:49;5.30;99.90
13970;DHT22;7057;49.984;8.404;2022-12-07T16:02:16;5.40;99.90
13970;DHT22;7057;49.984;8.404;2022-12-07T16:04:43;5.50;99.90
13970;DHT22;7057;49.984;8.404;2022-12-07T16:07:11;5.50;99.90
13970;DHT22;7057;49.984;8.404;2022-12-07T16:09:41;5.60;99.90
13970;DHT22;7057;49.984;8.404;2022-12-07T16:12:08;5.60;99.90
13970;DHT22;7057;49.984;8.404;2022-12-07T16:14:38;5.60;99.90
13970;DHT22;7057;49.984;8.404;2022-12-07T16:17:05;5.50;99.90
13970;DHT22;7057;49.984;8.404;2022-12-07T16:19:34;5.40;99.90
13970;DHT22;7057;49.984;8.404;2022-12-07T16:22:02;5.30;99.90
13970;DHT22;7057;49.984;8.404;2022-12-07T16:24:29;5.20;99.90
13970;DHT22;7057;49.984;8.404;2022-12-07T16:26:57;5.30;99.90
13970;DHT22;7057;49.984;8.404;2022-12-07T16:29:24;5.40;99.90
13970;DHT22;7057;49.984;8.404;2022-12-07T16:31:53;5.30;99.90
13970;DHT22;7057;49.984;8.404;2022-12-07T16:34:20;5.30;99.90
13970;DHT22;7057;49.984;8.404;2022-12-07T16:36:47;5.30;99.90
13970;DHT22;7057;49.984;8.404;2022-12-07T16:39:14;5.30;99.90
13970;DHT22;7057;49.984;8.404;2022-12-07T16:41:44;5.30;99.90
13970;DHT22;7057;49.984;8.404;2022-12-07T16:44:12;5.30;99.90